createdAt,value
2023-01-13T00:01:10.504Z,80.90
2023-01-13T00:03:37.375Z,80.40
2023-01-13T00:06:04.760Z,80.60
2023-01-13T00:08:32.404Z,80.70
2023-01-13T00:10:59.572Z,80.70
2023-01-13T00:13:29.260Z,80.50
2023-01-13T00:16:00.737Z,80.40
2023-01-13T00:18:28.094Z,80.30
2023-01-13T00:21:03.012Z,80.30
2023-01-13T00:23:30.934Z,80.40
2023-01-13T00:25:59.092Z,80.40
2023-01-13T00:28:26.558Z,80.80
2023-01-13T00:30:53.517Z,80.70
2023-01-13T00:33:21.597Z,80.60
2023-01-13T00:35:58.918Z,80.50
2023-01-13T00:38:25.915Z,79.80
2023-01-13T00:41:17.967Z,79.80
2023-01-13T00:43:45.383Z,80.20
2023-01-13T00:46:14.089Z,80.30
2023-01-13T00:48:41.162Z,80.10
2023-01-13T00:51:18.843Z,80.60
2023-01-13T00:53:48.236Z,80.80
2023-01-13T00:56:19.977Z,81.00
2023-01-13T00:58:56.570Z,80.90
2023-01-13T01:01:24.271Z,80.90
2023-01-13T01:03:53.304Z,81.00
2023-01-13T01:06:25.431Z,81.20
2023-01-13T01:08:53.645Z,81.40
2023-01-13T01:11:26.557Z,81.60
2023-01-13T01:13:55.944Z,81.70
2023-01-13T01:16:25.158Z,81.80
2023-01-13T01:18:53.282Z,81.60
2023-01-13T01:21:21.624Z,81.80
2023-01-13T01:23:48.769Z,81.70
2023-01-13T01:26:18.073Z,81.90
2023-01-13T01:28:45.650Z,82.10
2023-01-13T01:31:16.746Z,82.20
2023-01-13T01:33:44.241Z,82.20
2023-01-13T01:36:12.871Z,82.40
2023-01-13T01:38:39.814Z,82.30
2023-01-13T01:41:07.261Z,82.40
2023-01-13T01:44:02.712Z,82.50
2023-01-13T01:46:37.061Z,82.50
2023-01-13T01:49:16.259Z,82.30
2023-01-13T01:51:52.345Z,82.50
2023-01-13T01:54:39.396Z,82.50
2023-01-13T01:57:09.834Z,82.60
2023-01-13T01:59:37.763Z,82.60
2023-01-13T02:02:06.938Z,82.40
2023-01-13T02:04:38.536Z,82.50
2023-01-13T02:07:05.960Z,82.30
2023-01-13T02:09:34.097Z,82.20
2023-01-13T02:12:19.463Z,82.10
2023-01-13T02:14:46.896Z,82.20
2023-01-13T02:17:38.273Z,82.50
2023-01-13T02:20:14.335Z,82.50
2023-01-13T02:23:09.215Z,82.90
2023-01-13T02:25:44.097Z,83.00
2023-01-13T02:29:04.272Z,83.10
2023-01-13T02:31:44.359Z,82.80
2023-01-13T02:34:33.254Z,82.90
2023-01-13T02:37:03.570Z,83.00
2023-01-13T02:39:37.207Z,83.10
2023-01-13T02:42:36.539Z,83.00
2023-01-13T02:45:35.685Z,83.40
2023-01-13T02:48:06.710Z,83.40
2023-01-13T02:50:40.144Z,83.40
2023-01-13T02:53:35.689Z,83.50
2023-01-13T02:56:04.840Z,83.40
2023-01-13T02:58:32.726Z,83.40
2023-01-13T03:00:59.475Z,83.10
2023-01-13T03:03:26.360Z,83.50
2023-01-13T03:06:05.324Z,83.60
2023-01-13T03:08:59.071Z,83.90
2023-01-13T03:11:27.649Z,84.00
2023-01-13T03:14:03.654Z,84.10
2023-01-13T03:16:45.122Z,84.30
2023-01-13T03:19:14.656Z,84.40
2023-01-13T03:21:51.742Z,84.40
2023-01-13T03:24:35.041Z,84.40
2023-01-13T03:27:08.029Z,84.70
2023-01-13T03:29:42.791Z,84.60
2023-01-13T03:32:33.082Z,84.70
2023-01-13T03:35:20.099Z,84.70
2023-01-13T03:38:00.084Z,84.70
2023-01-13T03:40:32.472Z,84.50
2023-01-13T03:43:25.043Z,84.30
2023-01-13T03:45:57.152Z,84.10
2023-01-13T03:48:26.398Z,83.90
2023-01-13T03:50:57.402Z,84.00
2023-01-13T03:53:36.246Z,83.60
2023-01-13T03:56:10.279Z,83.60
2023-01-13T03:58:42.346Z,83.60
2023-01-13T04:01:16.976Z,83.50
2023-01-13T04:04:35.342Z,83.40
2023-01-13T04:07:08.622Z,83.50
2023-01-13T04:09:51.131Z,83.10
2023-01-13T04:12:23.549Z,83.10
2023-01-13T04:14:51.205Z,82.90
2023-01-13T04:17:18.878Z,83.00
2023-01-13T04:19:45.577Z,83.10
2023-01-13T04:22:12.307Z,83.20
2023-01-13T04:24:38.969Z,83.10
2023-01-13T04:27:06.176Z,83.30
2023-01-13T04:29:32.942Z,83.20
2023-01-13T04:31:59.599Z,83.10
2023-01-13T04:34:28.278Z,83.20
2023-01-13T04:36:57.519Z,83.20
2023-01-13T04:39:24.258Z,83.00
2023-01-13T04:42:01.169Z,83.20
2023-01-13T04:44:28.502Z,83.00
2023-01-13T04:46:55.224Z,82.80
2023-01-13T04:49:21.920Z,81.80
2023-01-13T04:51:49.680Z,78.00
2023-01-13T04:54:16.356Z,79.10
2023-01-13T04:56:43.049Z,78.90
2023-01-13T04:59:11.513Z,76.20
2023-01-13T05:01:38.900Z,72.40
2023-01-13T05:04:06.308Z,70.20
2023-01-13T05:06:33.606Z,69.60
2023-01-13T05:09:00.324Z,69.20
2023-01-13T05:11:45.698Z,69.90
2023-01-13T05:14:32.022Z,71.60
2023-01-13T05:17:01.744Z,72.10
2023-01-13T05:19:34.047Z,72.60
2023-01-13T05:22:20.996Z,72.00
2023-01-13T05:25:07.886Z,71.90
2023-01-13T05:27:34.896Z,72.30
2023-01-13T05:30:01.942Z,73.20
2023-01-13T05:32:29.037Z,73.70
2023-01-13T05:34:56.329Z,72.80
2023-01-13T05:37:24.524Z,72.50
2023-01-13T05:40:13.381Z,70.30
2023-01-13T05:42:59.326Z,70.10
2023-01-13T05:45:27.031Z,69.30
2023-01-13T05:47:53.681Z,70.30
2023-01-13T05:50:20.373Z,69.10
2023-01-13T05:52:47.004Z,69.40
2023-01-13T05:55:14.686Z,69.20
2023-01-13T05:57:41.710Z,69.70
2023-01-13T06:00:09.049Z,70.20
2023-01-13T06:02:38.560Z,71.20
2023-01-13T06:05:05.508Z,71.20
2023-01-13T06:07:35.290Z,71.60
2023-01-13T06:10:02.027Z,71.90
2023-01-13T06:12:28.669Z,71.90
2023-01-13T06:14:56.414Z,72.20
2023-01-13T06:17:23.152Z,72.40
2023-01-13T06:19:50.987Z,72.90
2023-01-13T06:22:19.719Z,72.00
2023-01-13T06:24:46.481Z,71.50
2023-01-13T06:27:14.692Z,70.90
2023-01-13T06:29:41.780Z,70.10
2023-01-13T06:32:23.092Z,70.50
2023-01-13T06:34:59.329Z,71.40
2023-01-13T06:37:30.995Z,72.00
2023-01-13T06:40:00.694Z,72.10
2023-01-13T06:42:53.192Z,72.70
2023-01-13T06:45:20.512Z,72.90
2023-01-13T06:47:47.200Z,73.60
2023-01-13T06:50:13.885Z,74.00
2023-01-13T06:52:40.525Z,74.60
2023-01-13T06:55:07.720Z,74.80
2023-01-13T06:57:34.432Z,75.00
2023-01-13T07:00:02.361Z,75.40
2023-01-13T07:02:29.071Z,75.30
2023-01-13T07:04:55.797Z,75.30
2023-01-13T07:07:22.455Z,75.40
2023-01-13T07:09:49.208Z,75.70
2023-01-13T07:12:15.886Z,75.90
2023-01-13T07:15:01.047Z,76.10
2023-01-13T07:17:27.671Z,76.30
2023-01-13T07:19:54.697Z,76.60
2023-01-13T07:22:21.393Z,76.80
2023-01-13T07:24:48.058Z,76.90
2023-01-13T07:27:14.715Z,77.00
2023-01-13T07:29:41.563Z,77.00
2023-01-13T07:32:08.388Z,77.00
2023-01-13T07:34:36.456Z,77.10
2023-01-13T07:37:03.120Z,77.20
2023-01-13T07:39:29.777Z,77.20
2023-01-13T07:42:15.015Z,77.40
2023-01-13T07:44:42.708Z,77.00
2023-01-13T07:47:11.132Z,76.20
2023-01-13T07:49:37.808Z,75.40
2023-01-13T07:52:04.819Z,75.50
2023-01-13T07:54:40.219Z,74.70
2023-01-13T07:57:08.577Z,74.70
2023-01-13T07:59:35.340Z,74.50
2023-01-13T08:02:02.224Z,74.50
2023-01-13T08:04:29.210Z,74.60
2023-01-13T08:06:56.872Z,74.30
2023-01-13T08:09:23.551Z,74.20
2023-01-13T08:12:13.500Z,74.30
2023-01-13T08:14:40.278Z,74.20
2023-01-13T08:17:10.319Z,74.20
2023-01-13T08:19:37.018Z,74.10
2023-01-13T08:22:03.757Z,74.00
2023-01-13T08:24:30.431Z,74.00
2023-01-13T08:26:57.120Z,74.30
2023-01-13T08:29:23.818Z,74.00
2023-01-13T08:31:50.458Z,74.20
2023-01-13T08:34:17.201Z,74.40
2023-01-13T08:36:43.888Z,74.50
2023-01-13T08:39:10.599Z,74.30
2023-01-13T08:41:55.414Z,74.70
2023-01-13T08:44:23.581Z,74.80
2023-01-13T08:46:50.427Z,74.80
2023-01-13T08:49:17.870Z,74.80
2023-01-13T08:51:44.946Z,74.50
2023-01-13T08:54:15.914Z,73.80
2023-01-13T08:56:43.830Z,73.20
2023-01-13T08:59:18.733Z,73.20
2023-01-13T09:01:45.772Z,72.60
2023-01-13T09:04:17.914Z,72.00
2023-01-13T09:06:45.607Z,72.40
2023-01-13T09:09:12.832Z,71.70
2023-01-13T09:12:03.900Z,70.70
2023-01-13T09:14:33.020Z,70.90
2023-01-13T09:17:01.159Z,70.90
2023-01-13T09:19:28.729Z,70.40
2023-01-13T09:21:56.442Z,70.60
2023-01-13T09:24:24.217Z,69.60
2023-01-13T09:26:51.219Z,70.50
2023-01-13T09:29:18.644Z,70.20
2023-01-13T09:31:45.540Z,70.60
2023-01-13T09:34:36.864Z,70.90
2023-01-13T09:37:05.229Z,70.90
2023-01-13T09:39:33.522Z,70.90
2023-01-13T09:42:42.993Z,71.20
2023-01-13T09:45:19.851Z,71.20
2023-01-13T09:47:52.536Z,70.40
2023-01-13T09:50:45.893Z,70.00
2023-01-13T09:53:19.217Z,68.90
2023-01-13T09:55:46.920Z,69.60
2023-01-13T09:58:18.553Z,69.20
2023-01-13T10:00:57.437Z,69.00
2023-01-13T10:03:25.924Z,69.50
2023-01-13T10:06:19.984Z,68.80
2023-01-13T10:08:48.881Z,69.70
2023-01-13T10:11:36.172Z,69.60
2023-01-13T10:14:32.210Z,69.90
2023-01-13T10:17:34.492Z,70.50
2023-01-13T10:20:21.018Z,70.20
2023-01-13T10:23:34.572Z,70.60
2023-01-13T10:26:26.803Z,69.60
2023-01-13T10:28:55.773Z,69.50
2023-01-13T10:31:24.395Z,67.70
2023-01-13T10:34:03.727Z,67.50
2023-01-13T10:36:30.486Z,68.10
2023-01-13T10:39:09.345Z,68.60
2023-01-13T10:41:37.165Z,67.80
2023-01-13T10:44:09.339Z,67.30
2023-01-13T10:46:55.597Z,68.10
2023-01-13T10:49:34.145Z,68.10
2023-01-13T10:52:02.307Z,67.70
2023-01-13T10:54:30.007Z,67.90
2023-01-13T10:57:36.065Z,68.50
2023-01-13T11:00:04.858Z,68.20
2023-01-13T11:03:23.359Z,68.20
2023-01-13T11:05:55.771Z,67.70
2023-01-13T11:08:45.127Z,66.60
2023-01-13T11:11:41.925Z,66.00
2023-01-13T11:14:56.907Z,65.80
2023-01-13T11:17:40.492Z,66.10
2023-01-13T11:20:31.034Z,64.90
2023-01-13T11:23:14.179Z,62.60
2023-01-13T11:25:44.642Z,62.80
2023-01-13T11:28:37.290Z,60.80
2023-01-13T11:31:14.960Z,61.10
2023-01-13T11:34:04.467Z,61.40
2023-01-13T11:36:39.729Z,61.30
2023-01-13T11:39:43.261Z,61.10
2023-01-13T11:42:21.833Z,60.00
2023-01-13T11:45:04.662Z,61.60
2023-01-13T11:47:33.290Z,61.00
2023-01-13T11:50:01.368Z,62.40
2023-01-13T11:52:59.827Z,62.70
2023-01-13T11:55:37.737Z,64.10
2023-01-13T11:58:21.018Z,64.10
2023-01-13T12:01:27.340Z,64.30
2023-01-13T12:04:25.935Z,64.40
2023-01-13T12:07:13.465Z,64.00
2023-01-13T12:10:09.894Z,64.70
2023-01-13T12:13:03.228Z,65.30
2023-01-13T12:15:57.303Z,64.40
2023-01-13T12:18:57.190Z,63.70
2023-01-13T12:21:32.499Z,62.40
2023-01-13T12:24:20.582Z,62.10
2023-01-13T12:26:55.079Z,62.00
2023-01-13T12:29:34.590Z,62.10
2023-01-13T12:32:05.118Z,62.10
2023-01-13T12:35:10.376Z,60.20
2023-01-13T12:38:07.904Z,60.70
2023-01-13T12:41:10.267Z,58.80
2023-01-13T12:44:04.810Z,55.50
2023-01-13T12:46:31.431Z,56.30
2023-01-13T12:49:02.360Z,57.40
2023-01-13T12:51:48.997Z,55.80
2023-01-13T12:54:30.997Z,57.30
2023-01-13T12:57:01.308Z,58.70
2023-01-13T12:59:27.976Z,57.70
2023-01-13T13:02:15.628Z,58.80
2023-01-13T13:04:51.814Z,59.50
2023-01-13T13:07:30.538Z,59.20
2023-01-13T13:10:02.782Z,58.50
2023-01-13T13:13:00.231Z,58.50
2023-01-13T13:15:35.991Z,58.60
2023-01-13T13:18:24.303Z,60.80
2023-01-13T13:21:00.321Z,62.50
2023-01-13T13:23:47.893Z,64.20
2023-01-13T13:26:26.718Z,65.40
2023-01-13T13:29:00.895Z,65.50
2023-01-13T13:31:44.743Z,64.30
2023-01-13T13:34:27.630Z,64.00
2023-01-13T13:37:15.864Z,64.10
2023-01-13T13:40:03.699Z,61.80
2023-01-13T13:43:15.801Z,59.70
2023-01-13T13:46:10.357Z,59.00
2023-01-13T13:48:49.804Z,58.00
2023-01-13T13:51:30.172Z,54.30
2023-01-13T13:53:59.325Z,54.00
2023-01-13T13:56:33.918Z,55.50
2023-01-13T13:59:03.666Z,54.80
2023-01-13T14:01:39.878Z,54.80
2023-01-13T14:04:20.469Z,55.10
2023-01-13T14:06:53.533Z,54.20
2023-01-13T14:09:23.048Z,55.10
2023-01-13T14:12:02.747Z,55.60
2023-01-13T14:14:29.853Z,54.60
2023-01-13T14:16:58.572Z,55.10
2023-01-13T14:19:36.427Z,53.60
2023-01-13T14:22:04.848Z,53.90
2023-01-13T14:24:46.799Z,55.90
2023-01-13T14:27:18.805Z,59.30
2023-01-13T14:29:45.827Z,61.30
2023-01-13T14:32:19.445Z,62.40
2023-01-13T14:34:46.511Z,63.50
2023-01-13T14:37:37.401Z,64.10
2023-01-13T14:40:04.492Z,64.90
2023-01-13T14:42:35.485Z,65.40
2023-01-13T14:45:03.192Z,66.00
2023-01-13T14:47:33.755Z,66.50
2023-01-13T14:50:19.289Z,66.50
2023-01-13T14:52:56.873Z,66.40
2023-01-13T14:55:33.732Z,66.50
2023-01-13T14:58:22.519Z,66.90
2023-01-13T15:00:50.893Z,67.30
2023-01-13T15:03:19.796Z,67.30
2023-01-13T15:05:49.355Z,67.40
2023-01-13T15:08:17.197Z,67.70
2023-01-13T15:10:48.386Z,67.70
2023-01-13T15:13:41.226Z,67.50
2023-01-13T15:16:25.217Z,67.70
2023-01-13T15:18:54.906Z,68.20
2023-01-13T15:21:23.008Z,68.40
2023-01-13T15:23:49.925Z,67.90
2023-01-13T15:26:29.203Z,67.90
2023-01-13T15:28:59.210Z,68.20
2023-01-13T15:31:27.844Z,68.20
2023-01-13T15:33:54.985Z,68.50
2023-01-13T15:36:25.812Z,68.60
2023-01-13T15:38:53.994Z,68.60
2023-01-13T15:41:41.105Z,69.00
2023-01-13T15:44:29.091Z,69.70
2023-01-13T15:46:56.835Z,70.30
2023-01-13T15:49:26.396Z,71.90
2023-01-13T15:51:53.446Z,72.70
2023-01-13T15:54:24.530Z,73.50
2023-01-13T15:56:53.107Z,73.50
2023-01-13T15:59:23.582Z,75.80
2023-01-13T16:01:50.539Z,76.80
2023-01-13T16:04:20.393Z,76.70
2023-01-13T16:06:47.516Z,77.00
2023-01-13T16:09:21.388Z,76.70
2023-01-13T16:11:48.034Z,76.50
2023-01-13T16:14:14.783Z,76.60
2023-01-13T16:16:41.523Z,77.00
2023-01-13T16:19:11.882Z,76.70
2023-01-13T16:21:42.513Z,76.90
2023-01-13T16:24:09.212Z,76.80
2023-01-13T16:26:37.558Z,76.70
2023-01-13T16:29:05.904Z,76.30
2023-01-13T16:31:33.963Z,75.60
2023-01-13T16:34:04.078Z,76.00
2023-01-13T16:36:34.510Z,75.90
2023-01-13T16:39:03.538Z,75.90
2023-01-13T16:41:30.248Z,76.30
2023-01-13T16:43:57.052Z,76.80
2023-01-13T16:46:26.238Z,76.80
2023-01-13T16:48:56.956Z,77.20
2023-01-13T16:51:24.588Z,77.80
2023-01-13T16:53:52.199Z,77.80
2023-01-13T16:56:28.102Z,78.20
2023-01-13T16:58:57.876Z,77.70
2023-01-13T17:01:30.546Z,78.10
2023-01-13T17:03:58.770Z,78.10
2023-01-13T17:06:39.449Z,77.70
2023-01-13T17:09:08.733Z,77.60
2023-01-13T17:11:38.802Z,77.60
2023-01-13T17:14:18.308Z,77.40
2023-01-13T17:16:53.899Z,77.40
2023-01-13T17:19:22.408Z,77.40
2023-01-13T17:21:51.092Z,77.40
2023-01-13T17:24:18.363Z,77.80
2023-01-13T17:26:48.972Z,78.00
2023-01-13T17:29:20.141Z,78.30
2023-01-13T17:31:46.864Z,78.40
2023-01-13T17:34:14.243Z,78.50
2023-01-13T17:36:43.317Z,78.60
2023-01-13T17:39:26.316Z,78.30
2023-01-13T17:41:55.781Z,78.10
2023-01-13T17:44:23.527Z,78.30
2023-01-13T17:46:50.463Z,78.20
2023-01-13T17:49:19.176Z,78.00
2023-01-13T17:51:48.906Z,78.00
2023-01-13T17:54:16.068Z,77.70
2023-01-13T17:56:43.250Z,77.80
2023-01-13T17:59:12.296Z,77.40
2023-01-13T18:01:41.474Z,77.50
2023-01-13T18:04:13.700Z,77.30
2023-01-13T18:06:40.331Z,77.40
2023-01-13T18:09:07.269Z,77.50
2023-01-13T18:11:34.092Z,77.50
2023-01-13T18:14:05.725Z,77.60
2023-01-13T18:16:32.894Z,76.90
2023-01-13T18:19:18.697Z,76.80
2023-01-13T18:22:09.957Z,76.50
2023-01-13T18:24:55.255Z,76.50
2023-01-13T18:27:32.120Z,76.60
2023-01-13T18:30:00.186Z,77.20
2023-01-13T18:32:32.841Z,77.50
2023-01-13T18:35:05.597Z,77.70
2023-01-13T18:37:35.798Z,77.80
2023-01-13T18:40:03.489Z,77.80
2023-01-13T18:42:48.724Z,77.70
2023-01-13T18:45:15.545Z,77.80
2023-01-13T18:47:42.355Z,77.60
2023-01-13T18:50:12.196Z,77.70
2023-01-13T18:52:39.149Z,77.70
2023-01-13T18:55:06.006Z,77.90
2023-01-13T18:57:33.400Z,77.60
2023-01-13T19:00:00.634Z,77.70
2023-01-13T19:02:29.885Z,77.70
2023-01-13T19:04:57.213Z,77.50
2023-01-13T19:07:28.233Z,77.20
2023-01-13T19:09:55.878Z,77.20
2023-01-13T19:12:26.480Z,76.50
2023-01-13T19:14:57.562Z,75.80
2023-01-13T19:17:27.126Z,75.80
2023-01-13T19:19:55.434Z,75.70
2023-01-13T19:22:29.777Z,75.50
2023-01-13T19:25:00.682Z,75.80
2023-01-13T19:27:28.412Z,75.50
2023-01-13T19:29:58.160Z,75.70
2023-01-13T19:32:25.722Z,75.70
2023-01-13T19:34:54.950Z,75.80
2023-01-13T19:37:21.685Z,75.70
2023-01-13T19:39:48.819Z,75.40
2023-01-13T19:42:34.108Z,75.20
2023-01-13T19:45:19.513Z,75.00
2023-01-13T19:47:46.303Z,74.90
2023-01-13T19:50:19.111Z,75.00
2023-01-13T19:52:46.080Z,75.30
2023-01-13T19:55:12.864Z,75.60
2023-01-13T19:57:41.642Z,75.80
2023-01-13T20:00:10.747Z,76.20
2023-01-13T20:02:44.831Z,76.20
2023-01-13T20:05:12.789Z,76.00
2023-01-13T20:07:39.650Z,75.40
2023-01-13T20:10:07.160Z,74.90
2023-01-13T20:12:35.197Z,74.40
2023-01-13T20:15:01.869Z,73.70
2023-01-13T20:17:30.161Z,73.40
2023-01-13T20:19:59.475Z,73.70
2023-01-13T20:22:26.131Z,73.90
2023-01-13T20:24:56.797Z,74.10
2023-01-13T20:27:24.027Z,74.00
2023-01-13T20:29:51.871Z,73.90
2023-01-13T20:32:18.588Z,73.90
2023-01-13T20:34:45.316Z,74.00
2023-01-13T20:37:11.985Z,74.10
2023-01-13T20:39:41.017Z,74.30
2023-01-13T20:42:27.142Z,74.70
2023-01-13T20:44:53.865Z,74.80
2023-01-13T20:47:20.518Z,75.30
2023-01-13T20:49:47.527Z,74.90
2023-01-13T20:52:16.294Z,74.70
2023-01-13T20:54:43.086Z,74.70
2023-01-13T20:57:11.226Z,74.80
2023-01-13T20:59:38.940Z,75.10
2023-01-13T21:02:08.088Z,74.90
2023-01-13T21:04:34.779Z,74.30
2023-01-13T21:07:01.465Z,74.30
2023-01-13T21:09:28.268Z,74.60
2023-01-13T21:12:13.751Z,74.80
2023-01-13T21:15:01.569Z,75.20
2023-01-13T21:17:47.192Z,75.40
2023-01-13T21:20:15.094Z,75.70
2023-01-13T21:22:46.704Z,75.70
2023-01-13T21:25:14.157Z,75.60
2023-01-13T21:27:41.033Z,75.60
2023-01-13T21:30:08.477Z,75.70
2023-01-13T21:32:35.113Z,75.80
2023-01-13T21:35:02.092Z,75.40
2023-01-13T21:37:28.763Z,75.30
2023-01-13T21:39:55.529Z,75.30
2023-01-13T21:42:40.690Z,75.00
2023-01-13T21:45:29.110Z,74.70
2023-01-13T21:47:55.933Z,74.60
2023-01-13T21:50:25.246Z,74.20
2023-01-13T21:52:52.601Z,74.30
2023-01-13T21:55:31.284Z,73.70
2023-01-13T21:58:01.089Z,73.60
2023-01-13T22:00:30.819Z,73.20
2023-01-13T22:02:58.690Z,72.90
2023-01-13T22:05:26.497Z,72.90
2023-01-13T22:07:53.544Z,73.20
2023-01-13T22:10:23.500Z,73.80
2023-01-13T22:12:54.518Z,74.40
2023-01-13T22:15:22.407Z,75.10
2023-01-13T22:17:53.941Z,75.70
2023-01-13T22:20:22.305Z,76.20
2023-01-13T22:22:49.694Z,76.60
2023-01-13T22:25:17.266Z,76.50
2023-01-13T22:27:44.913Z,76.50
2023-01-13T22:30:17.597Z,76.50
2023-01-13T22:32:45.777Z,76.70
2023-01-13T22:35:14.835Z,77.00
2023-01-13T22:37:42.920Z,76.90
2023-01-13T22:40:11.781Z,76.90
2023-01-13T22:42:42.885Z,76.90
2023-01-13T22:45:13.848Z,77.00
2023-01-13T22:47:40.623Z,76.80
2023-01-13T22:50:08.186Z,76.90
2023-01-13T22:52:35.845Z,76.90
2023-01-13T22:55:02.675Z,77.00
2023-01-13T22:57:36.604Z,77.00
2023-01-13T23:00:10.301Z,77.00
2023-01-13T23:02:38.212Z,77.20
2023-01-13T23:05:05.213Z,77.30
2023-01-13T23:07:31.887Z,77.30
2023-01-13T23:09:58.589Z,77.40
2023-01-13T23:12:25.321Z,77.50
2023-01-13T23:14:52.050Z,77.30
2023-01-13T23:17:18.719Z,77.30
2023-01-13T23:19:45.465Z,77.30
2023-01-13T23:22:13.007Z,77.80
2023-01-13T23:24:39.683Z,78.20
2023-01-13T23:27:06.393Z,78.60
2023-01-13T23:29:33.057Z,78.90
2023-01-13T23:31:59.710Z,79.00
2023-01-13T23:34:26.488Z,79.10
2023-01-13T23:36:53.238Z,79.10
2023-01-13T23:39:19.909Z,78.80
2023-01-13T23:41:46.581Z,78.30
2023-01-13T23:44:13.226Z,78.10
2023-01-13T23:46:39.945Z,78.00
2023-01-13T23:49:06.740Z,77.90
2023-01-13T23:51:33.599Z,78.20
2023-01-13T23:54:00.730Z,78.40
2023-01-13T23:56:30.224Z,78.50
2023-01-13T23:58:57.816Z,78.60
